sensor_id;sensor_type;location;lat;lon;timestamp;pressure;altitude;pressure_sealevel;temperature;humidity
61394;BME280;48555;50.952;-0.120;2023-05-08T00:01:08;101592.84;;;13.56;80.94
61394;BME280;48555;50.952;-0.120;2023-05-08T00:03:33;101589.47;;;13.54;80.84
61394;BME280;48555;50.952;-0.120;2023-05-08T00:05:58;101581.91;;;13.50;80.99
61394;BME280;48555;50.952;-0.120;2023-05-08T00:08:24;101579.31;;;13.37;81.15
61394;BME280;48555;50.952;-0.120;2023-05-08T00:10:49;101575.53;;;13.28;81.35
61394;BME280;48555;50.952;-0.120;2023-05-08T00:13:14;101579.22;;;13.26;81.68
61394;BME280;48555;50.952;-0.120;2023-05-08T00:15:40;101568.50;;;13.29;81.63
61394;BME280;48555;50.952;-0.120;2023-05-08T00:18:05;101564.94;;;13.30;81.56
61394;BME280;48555;50.952;-0.120;2023-05-08T00:20:30;101557.28;;;13.27;81.41
61394;BME280;48555;50.952;-0.120;2023-05-08T00:22:56;101558.38;;;13.23;81.27
61394;BME280;48555;50.952;-0.120;2023-05-08T00:25:22;101563.56;;;13.24;81.14
61394;BME280;48555;50.952;-0.120;2023-05-08T00:27:47;101559.22;;;13.23;81.09
61394;BME280;48555;50.952;-0.120;2023-05-08T00:30:13;101552.59;;;13.17;80.92
61394;BME280;48555;50.952;-0.120;2023-05-08T00:32:38;101555.03;;;13.21;81.15
61394;BME280;48555;50.952;-0.120;2023-05-08T00:35:04;101561.22;;;13.19;80.85
61394;BME280;48555;50.952;-0.120;2023-05-08T00:37:29;101563.13;;;13.17;80.89
61394;BME280;48555;50.952;-0.120;2023-05-08T00:39:55;101568.56;;;13.14;80.94
61394;BME280;48555;50.952;-0.120;2023-05-08T00:42:20;101561.03;;;13.10;80.91
61394;BME280;48555;50.952;-0.120;2023-05-08T00:44:46;101563.75;;;13.08;80.91
61394;BME280;48555;50.952;-0.120;2023-05-08T00:47:12;101554.50;;;13.03;80.81
61394;BME280;48555;50.952;-0.120;2023-05-08T00:49:37;101549.25;;;13.03;80.97
61394;BME280;48555;50.952;-0.120;2023-05-08T00:52:03;101556.50;;;12.99;80.76
61394;BME280;48555;50.952;-0.120;2023-05-08T00:54:33;101554.44;;;12.91;80.82
61394;BME280;48555;50.952;-0.120;2023-05-08T00:56:59;101547.91;;;12.84;81.16
61394;BME280;48555;50.952;-0.120;2023-05-08T00:59:25;101558.09;;;12.76;81.56
61394;BME280;48555;50.952;-0.120;2023-05-08T01:01:51;101559.16;;;12.73;81.50
61394;BME280;48555;50.952;-0.120;2023-05-08T01:04:20;101553.91;;;12.73;81.93
61394;BME280;48555;50.952;-0.120;2023-05-08T01:06:45;101551.28;;;12.73;81.71
61394;BME280;48555;50.952;-0.120;2023-05-08T01:09:11;101545.28;;;12.71;81.61
61394;BME280;48555;50.952;-0.120;2023-05-08T01:14:19;101544.53;;;12.69;81.56
61394;BME280;48555;50.952;-0.120;2023-05-08T01:17:01;101548.13;;;12.68;81.34
61394;BME280;48555;50.952;-0.120;2023-05-08T01:19:53;101544.13;;;12.63;81.48
61394;BME280;48555;50.952;-0.120;2023-05-08T01:25:21;101552.00;;;12.63;81.66
61394;BME280;48555;50.952;-0.120;2023-05-08T01:31:19;101544.34;;;12.60;81.51
61394;BME280;48555;50.952;-0.120;2023-05-08T01:36:40;101547.25;;;12.55;81.36
61394;BME280;48555;50.952;-0.120;2023-05-08T01:39:44;101555.66;;;12.47;81.46
61394;BME280;48555;50.952;-0.120;2023-05-08T01:42:23;101549.25;;;12.39;81.67
61394;BME280;48555;50.952;-0.120;2023-05-08T01:45:15;101545.97;;;12.35;81.58
61394;BME280;48555;50.952;-0.120;2023-05-08T01:47:43;101547.44;;;12.39;81.74
61394;BME280;48555;50.952;-0.120;2023-05-08T01:50:17;101543.78;;;12.42;81.53
61394;BME280;48555;50.952;-0.120;2023-05-08T01:52:57;101548.09;;;12.43;81.43
61394;BME280;48555;50.952;-0.120;2023-05-08T01:55:30;101556.16;;;12.40;81.18
61394;BME280;48555;50.952;-0.120;2023-05-08T01:57:57;101553.00;;;12.35;81.25
61394;BME280;48555;50.952;-0.120;2023-05-08T02:00:24;101556.34;;;12.37;81.26
61394;BME280;48555;50.952;-0.120;2023-05-08T02:02:50;101557.94;;;12.39;81.17
61394;BME280;48555;50.952;-0.120;2023-05-08T02:05:17;101557.81;;;12.41;81.10
61394;BME280;48555;50.952;-0.120;2023-05-08T02:07:45;101557.75;;;12.42;80.91
61394;BME280;48555;50.952;-0.120;2023-05-08T02:10:12;101550.06;;;12.39;80.77
61394;BME280;48555;50.952;-0.120;2023-05-08T02:12:39;101553.53;;;12.40;80.55
61394;BME280;48555;50.952;-0.120;2023-05-08T02:15:07;101561.59;;;12.37;80.72
61394;BME280;48555;50.952;-0.120;2023-05-08T02:17:35;101559.38;;;12.31;80.73
61394;BME280;48555;50.952;-0.120;2023-05-08T02:20:03;101557.81;;;12.28;80.47
61394;BME280;48555;50.952;-0.120;2023-05-08T02:22:31;101557.91;;;12.26;80.62
61394;BME280;48555;50.952;-0.120;2023-05-08T02:24:57;101550.88;;;12.27;80.63
61394;BME280;48555;50.952;-0.120;2023-05-08T02:27:25;101552.56;;;12.28;80.68
61394;BME280;48555;50.952;-0.120;2023-05-08T02:29:52;101549.09;;;12.27;80.50
61394;BME280;48555;50.952;-0.120;2023-05-08T02:32:19;101547.81;;;12.20;80.56
61394;BME280;48555;50.952;-0.120;2023-05-08T02:34:47;101529.44;;;12.08;80.73
61394;BME280;48555;50.952;-0.120;2023-05-08T02:37:15;101549.16;;;12.13;80.57
61394;BME280;48555;50.952;-0.120;2023-05-08T02:39:42;101544.53;;;12.04;80.71
61394;BME280;48555;50.952;-0.120;2023-05-08T02:42:10;101546.03;;;11.94;80.87
61394;BME280;48555;50.952;-0.120;2023-05-08T02:44:35;101548.22;;;11.87;81.52
61394;BME280;48555;50.952;-0.120;2023-05-08T02:47:14;101547.28;;;11.88;81.31
61394;BME280;48555;50.952;-0.120;2023-05-08T02:49:47;101544.50;;;11.91;81.50
61394;BME280;48555;50.952;-0.120;2023-05-08T02:52:26;101542.03;;;11.88;81.51
61394;BME280;48555;50.952;-0.120;2023-05-08T02:55:09;101547.66;;;11.82;81.05
61394;BME280;48555;50.952;-0.120;2023-05-08T03:00:28;101539.84;;;11.68;81.55
61394;BME280;48555;50.952;-0.120;2023-05-08T03:02:59;101539.19;;;11.64;81.73
61394;BME280;48555;50.952;-0.120;2023-05-08T03:05:31;101539.53;;;11.72;81.46
61394;BME280;48555;50.952;-0.120;2023-05-08T03:08:02;101539.34;;;11.75;81.53
61394;BME280;48555;50.952;-0.120;2023-05-08T03:10:32;101535.59;;;11.79;81.42
61394;BME280;48555;50.952;-0.120;2023-05-08T03:12:59;101532.97;;;11.79;81.34
61394;BME280;48555;50.952;-0.120;2023-05-08T03:15:32;101535.69;;;11.78;81.00
61394;BME280;48555;50.952;-0.120;2023-05-08T03:18:05;101540.19;;;11.76;81.22
61394;BME280;48555;50.952;-0.120;2023-05-08T03:20:38;101546.38;;;11.75;80.99
61394;BME280;48555;50.952;-0.120;2023-05-08T03:23:05;101538.59;;;11.73;81.03
61394;BME280;48555;50.952;-0.120;2023-05-08T03:25:33;101540.38;;;11.73;81.07
61394;BME280;48555;50.952;-0.120;2023-05-08T03:28:00;101539.34;;;11.75;80.86
61394;BME280;48555;50.952;-0.120;2023-05-08T03:30:29;101545.34;;;11.77;80.78
61394;BME280;48555;50.952;-0.120;2023-05-08T03:32:57;101536.91;;;11.72;80.83
61394;BME280;48555;50.952;-0.120;2023-05-08T03:35:23;101534.50;;;11.69;80.62
61394;BME280;48555;50.952;-0.120;2023-05-08T03:37:49;101539.56;;;11.58;81.17
61394;BME280;48555;50.952;-0.120;2023-05-08T03:40:15;101535.94;;;11.46;81.27
61394;BME280;48555;50.952;-0.120;2023-05-08T03:42:40;101535.69;;;11.36;81.62
61394;BME280;48555;50.952;-0.120;2023-05-08T03:45:08;101537.28;;;11.25;81.82
61394;BME280;48555;50.952;-0.120;2023-05-08T03:47:35;101530.72;;;11.18;81.92
61394;BME280;48555;50.952;-0.120;2023-05-08T03:50:01;101532.69;;;11.14;82.17
61394;BME280;48555;50.952;-0.120;2023-05-08T03:52:27;101516.81;;;11.03;82.25
61394;BME280;48555;50.952;-0.120;2023-05-08T03:54:53;101530.91;;;11.14;82.00
61394;BME280;48555;50.952;-0.120;2023-05-08T03:57:18;101526.44;;;11.17;82.12
61394;BME280;48555;50.952;-0.120;2023-05-08T04:00:00;101523.94;;;11.15;82.16
61394;BME280;48555;50.952;-0.120;2023-05-08T04:02:34;101523.94;;;11.15;82.04
61394;BME280;48555;50.952;-0.120;2023-05-08T04:05:11;101529.25;;;11.13;81.80
61394;BME280;48555;50.952;-0.120;2023-05-08T04:07:52;101535.25;;;11.16;81.70
61394;BME280;48555;50.952;-0.120;2023-05-08T04:10:28;101534.28;;;11.17;81.89
61394;BME280;48555;50.952;-0.120;2023-05-08T04:13:10;101530.72;;;11.18;81.91
61394;BME280;48555;50.952;-0.120;2023-05-08T04:15:45;101526.91;;;11.23;81.68
61394;BME280;48555;50.952;-0.120;2023-05-08T04:18:15;101527.84;;;11.22;81.61
61394;BME280;48555;50.952;-0.120;2023-05-08T04:20:42;101527.75;;;11.24;81.48
61394;BME280;48555;50.952;-0.120;2023-05-08T04:23:13;101531.28;;;11.23;81.41
61394;BME280;48555;50.952;-0.120;2023-05-08T04:25:39;101532.88;;;11.25;81.33
61394;BME280;48555;50.952;-0.120;2023-05-08T04:28:07;101532.13;;;11.23;81.56
61394;BME280;48555;50.952;-0.120;2023-05-08T04:30:33;101526.34;;;11.18;81.23
61394;BME280;48555;50.952;-0.120;2023-05-08T04:33:01;101527.28;;;11.17;81.40
61394;BME280;48555;50.952;-0.120;2023-05-08T04:35:28;101536.63;;;11.21;81.47
61394;BME280;48555;50.952;-0.120;2023-05-08T04:37:54;101527.28;;;11.17;81.40
61394;BME280;48555;50.952;-0.120;2023-05-08T04:40:19;101534.75;;;11.23;81.55
61394;BME280;48555;50.952;-0.120;2023-05-08T04:42:45;101540.75;;;11.25;81.52
61394;BME280;48555;50.952;-0.120;2023-05-08T04:45:11;101539.78;;;11.26;81.88
61394;BME280;48555;50.952;-0.120;2023-05-08T04:47:36;101540.66;;;11.27;81.79
61394;BME280;48555;50.952;-0.120;2023-05-08T04:50:02;101539.91;;;11.25;82.00
61394;BME280;48555;50.952;-0.120;2023-05-08T04:52:27;101539.31;;;11.34;82.42
61394;BME280;48555;50.952;-0.120;2023-05-08T04:54:53;101536.88;;;11.45;82.38
61394;BME280;48555;50.952;-0.120;2023-05-08T04:57:18;101531.47;;;11.48;82.28
61394;BME280;48555;50.952;-0.120;2023-05-08T04:59:43;101536.50;;;11.51;82.25
61394;BME280;48555;50.952;-0.120;2023-05-08T05:02:09;101542.38;;;11.55;82.17
61394;BME280;48555;50.952;-0.120;2023-05-08T05:04:35;101537.25;;;11.53;82.23
61394;BME280;48555;50.952;-0.120;2023-05-08T05:07:01;101543.97;;;11.57;82.40
61394;BME280;48555;50.952;-0.120;2023-05-08T05:09:27;101544.81;;;11.58;82.36
61394;BME280;48555;50.952;-0.120;2023-05-08T05:11:53;101545.38;;;11.63;82.34
61394;BME280;48555;50.952;-0.120;2023-05-08T05:14:18;101547.88;;;11.65;82.49
61394;BME280;48555;50.952;-0.120;2023-05-08T05:16:43;101551.34;;;11.65;82.44
61394;BME280;48555;50.952;-0.120;2023-05-08T05:19:09;101550.41;;;11.66;82.53
61394;BME280;48555;50.952;-0.120;2023-05-08T05:21:34;101545.81;;;11.70;82.66
61394;BME280;48555;50.952;-0.120;2023-05-08T05:24:02;101550.66;;;11.76;82.54
61394;BME280;48555;50.952;-0.120;2023-05-08T05:26:28;101559.00;;;11.82;82.61
61394;BME280;48555;50.952;-0.120;2023-05-08T05:28:53;101556.25;;;11.84;82.53
61394;BME280;48555;50.952;-0.120;2023-05-08T05:31:18;101562.91;;;11.90;82.58
61394;BME280;48555;50.952;-0.120;2023-05-08T05:33:44;101564.50;;;11.92;82.50
61394;BME280;48555;50.952;-0.120;2023-05-08T05:36:09;101568.72;;;11.95;82.64
61394;BME280;48555;50.952;-0.120;2023-05-08T05:38:35;101566.63;;;12.00;82.55
61394;BME280;48555;50.952;-0.120;2023-05-08T05:41:00;101570.00;;;12.02;82.53
61394;BME280;48555;50.952;-0.120;2023-05-08T05:43:26;101580.06;;;12.08;82.64
61394;BME280;48555;50.952;-0.120;2023-05-08T05:45:51;101577.25;;;12.11;82.77
61394;BME280;48555;50.952;-0.120;2023-05-08T05:48:17;101588.41;;;12.15;82.45
61394;BME280;48555;50.952;-0.120;2023-05-08T05:50:42;101584.72;;;12.17;82.77
61394;BME280;48555;50.952;-0.120;2023-05-08T05:53:07;101590.06;;;12.16;82.76
61394;BME280;48555;50.952;-0.120;2023-05-08T05:55:34;101589.97;;;12.17;82.64
61394;BME280;48555;50.952;-0.120;2023-05-08T05:57:59;101591.56;;;12.20;82.62
61394;BME280;48555;50.952;-0.120;2023-05-08T06:00:25;101588.72;;;12.23;82.96
61394;BME280;48555;50.952;-0.120;2023-05-08T06:02:50;101590.75;;;12.32;82.79
61394;BME280;48555;50.952;-0.120;2023-05-08T06:05:16;101590.38;;;12.38;83.04
61394;BME280;48555;50.952;-0.120;2023-05-08T06:07:43;101589.84;;;12.46;83.01
61394;BME280;48555;50.952;-0.120;2023-05-08T06:10:09;101596.69;;;12.48;83.24
61394;BME280;48555;50.952;-0.120;2023-05-08T06:12:35;101595.53;;;12.53;83.27
61394;BME280;48555;50.952;-0.120;2023-05-08T06:15:00;101599.72;;;12.55;83.54
61394;BME280;48555;50.952;-0.120;2023-05-08T06:17:25;101606.47;;;12.59;83.74
61394;BME280;48555;50.952;-0.120;2023-05-08T06:19:52;101599.84;;;12.66;83.95
61394;BME280;48555;50.952;-0.120;2023-05-08T06:22:20;101586.25;;;12.74;84.28
61394;BME280;48555;50.952;-0.120;2023-05-08T06:24:51;101600.53;;;12.95;84.88
61394;BME280;48555;50.952;-0.120;2023-05-08T06:27:20;101600.09;;;13.14;85.59
61394;BME280;48555;50.952;-0.120;2023-05-08T06:29:49;101603.25;;;13.32;86.39
61394;BME280;48555;50.952;-0.120;2023-05-08T06:32:17;101600.63;;;13.45;86.67
61394;BME280;48555;50.952;-0.120;2023-05-08T06:34:42;101609.31;;;13.58;87.37
61394;BME280;48555;50.952;-0.120;2023-05-08T06:37:07;101603.94;;;13.73;87.45
61394;BME280;48555;50.952;-0.120;2023-05-08T06:39:33;101610.00;;;13.86;87.52
61394;BME280;48555;50.952;-0.120;2023-05-08T06:41:58;101614.47;;;13.97;87.94
61394;BME280;48555;50.952;-0.120;2023-05-08T06:44:23;101618.75;;;14.11;87.77
61394;BME280;48555;50.952;-0.120;2023-05-08T06:46:49;101617.25;;;14.19;88.14
61394;BME280;48555;50.952;-0.120;2023-05-08T06:49:14;101617.16;;;14.32;88.25
61394;BME280;48555;50.952;-0.120;2023-05-08T06:51:40;101613.44;;;14.47;88.36
61394;BME280;48555;50.952;-0.120;2023-05-08T06:54:05;101618.31;;;14.65;88.64
61394;BME280;48555;50.952;-0.120;2023-05-08T06:56:33;101620.38;;;14.84;88.48
61394;BME280;48555;50.952;-0.120;2023-05-08T06:58:58;101617.31;;;15.01;88.90
61394;BME280;48555;50.952;-0.120;2023-05-08T07:01:24;101610.84;;;15.16;88.63
61394;BME280;48555;50.952;-0.120;2023-05-08T07:03:49;101609.06;;;15.39;88.60
61394;BME280;48555;50.952;-0.120;2023-05-08T07:06:14;101611.81;;;15.60;88.69
61394;BME280;48555;50.952;-0.120;2023-05-08T07:08:40;101616.22;;;15.82;88.26
61394;BME280;48555;50.952;-0.120;2023-05-08T07:11:05;101611.66;;;15.96;87.81
61394;BME280;48555;50.952;-0.120;2023-05-08T07:13:31;101619.78;;;16.15;87.26
61394;BME280;48555;50.952;-0.120;2023-05-08T07:15:57;101612.16;;;16.33;86.81
61394;BME280;48555;50.952;-0.120;2023-05-08T07:18:22;101611.97;;;16.46;86.38
61394;BME280;48555;50.952;-0.120;2023-05-08T07:20:48;101607.78;;;16.64;85.76
61394;BME280;48555;50.952;-0.120;2023-05-08T07:23:13;101608.59;;;16.76;85.33
61394;BME280;48555;50.952;-0.120;2023-05-08T07:25:39;101610.34;;;16.87;84.80
61394;BME280;48555;50.952;-0.120;2023-05-08T07:28:04;101612.34;;;16.94;83.96
61394;BME280;48555;50.952;-0.120;2023-05-08T07:30:29;101598.44;;;16.92;83.05
61394;BME280;48555;50.952;-0.120;2023-05-08T07:32:55;101608.16;;;16.92;81.69
61394;BME280;48555;50.952;-0.120;2023-05-08T07:35:20;101608.84;;;16.94;81.10
61394;BME280;48555;50.952;-0.120;2023-05-08T07:37:46;101598.63;;;17.00;81.14
61394;BME280;48555;50.952;-0.120;2023-05-08T07:40:11;101594.47;;;17.08;80.50
61394;BME280;48555;50.952;-0.120;2023-05-08T07:42:41;101604.13;;;17.18;80.28
61394;BME280;48555;50.952;-0.120;2023-05-08T07:45:08;101602.09;;;17.32;80.20
61394;BME280;48555;50.952;-0.120;2023-05-08T07:47:33;101599.09;;;17.46;79.65
61394;BME280;48555;50.952;-0.120;2023-05-08T07:49:59;101600.25;;;17.53;78.14
61394;BME280;48555;50.952;-0.120;2023-05-08T07:52:25;101604.13;;;17.59;77.42
61394;BME280;48555;50.952;-0.120;2023-05-08T07:54:51;101600.66;;;17.58;76.82
61394;BME280;48555;50.952;-0.120;2023-05-08T07:57:16;101599.53;;;17.61;76.61
61394;BME280;48555;50.952;-0.120;2023-05-08T07:59:42;101600.81;;;17.66;75.99
61394;BME280;48555;50.952;-0.120;2023-05-08T08:02:07;101603.19;;;17.69;75.83
61394;BME280;48555;50.952;-0.120;2023-05-08T08:04:32;101607.81;;;17.77;75.42
61394;BME280;48555;50.952;-0.120;2023-05-08T08:06:58;101611.63;;;17.84;74.97
61394;BME280;48555;50.952;-0.120;2023-05-08T08:09:23;101609.53;;;17.88;74.18
61394;BME280;48555;50.952;-0.120;2023-05-08T08:11:49;101602.28;;;17.90;72.49
61394;BME280;48555;50.952;-0.120;2023-05-08T08:14:14;101609.41;;;17.89;71.60
61394;BME280;48555;50.952;-0.120;2023-05-08T08:16:40;101607.59;;;17.90;70.99
61394;BME280;48555;50.952;-0.120;2023-05-08T08:19:06;101608.28;;;17.92;70.92
61394;BME280;48555;50.952;-0.120;2023-05-08T08:21:32;101607.19;;;17.95;70.85
61394;BME280;48555;50.952;-0.120;2023-05-08T08:23:57;101601.31;;;17.91;70.74
61394;BME280;48555;50.952;-0.120;2023-05-08T08:26:23;101600.22;;;17.93;70.32
61394;BME280;48555;50.952;-0.120;2023-05-08T08:28:49;101599.25;;;17.95;70.23
61394;BME280;48555;50.952;-0.120;2023-05-08T08:31:14;101593.81;;;17.96;69.71
61394;BME280;48555;50.952;-0.120;2023-05-08T08:33:40;101597.44;;;17.95;69.45
61394;BME280;48555;50.952;-0.120;2023-05-08T08:36:11;101590.22;;;17.97;69.72
61394;BME280;48555;50.952;-0.120;2023-05-08T08:38:37;101592.97;;;18.05;69.38
61394;BME280;48555;50.952;-0.120;2023-05-08T08:41:02;101581.28;;;18.08;69.48
61394;BME280;48555;50.952;-0.120;2023-05-08T08:43:28;101589.50;;;18.14;69.41
61394;BME280;48555;50.952;-0.120;2023-05-08T08:45:53;101579.22;;;18.21;69.25
61394;BME280;48555;50.952;-0.120;2023-05-08T08:48:20;101581.44;;;18.26;69.29
61394;BME280;48555;50.952;-0.120;2023-05-08T08:53:25;101574.91;;;18.30;69.01
61394;BME280;48555;50.952;-0.120;2023-05-08T08:55:53;101579.06;;;18.32;68.91
61394;BME280;48555;50.952;-0.120;2023-05-08T08:58:39;101575.72;;;18.30;68.74
61394;BME280;48555;50.952;-0.120;2023-05-08T09:01:08;101580.31;;;18.28;68.93
61394;BME280;48555;50.952;-0.120;2023-05-08T09:03:38;101581.44;;;18.26;68.59
61394;BME280;48555;50.952;-0.120;2023-05-08T09:06:04;101573.34;;;18.17;68.80
61394;BME280;48555;50.952;-0.120;2023-05-08T09:08:29;101576.81;;;18.08;69.23
61394;BME280;48555;50.952;-0.120;2023-05-08T09:10:56;101583.50;;;18.03;69.53
61394;BME280;48555;50.952;-0.120;2023-05-08T09:13:22;101577.66;;;17.99;69.45
61394;BME280;48555;50.952;-0.120;2023-05-08T09:15:47;101586.16;;;17.93;69.73
61394;BME280;48555;50.952;-0.120;2023-05-08T09:18:14;101584.22;;;17.95;70.02
61394;BME280;48555;50.952;-0.120;2023-05-08T09:20:40;101577.94;;;18.06;70.32
61394;BME280;48555;50.952;-0.120;2023-05-08T09:23:05;101582.13;;;18.08;70.50
61394;BME280;48555;50.952;-0.120;2023-05-08T09:25:45;101585.91;;;18.15;69.59
61394;BME280;48555;50.952;-0.120;2023-05-08T09:28:19;101578.09;;;18.14;68.58
61394;BME280;48555;50.952;-0.120;2023-05-08T09:30:55;101582.13;;;18.18;68.38
61394;BME280;48555;50.952;-0.120;2023-05-08T09:33:25;101588.25;;;18.19;68.34
61394;BME280;48555;50.952;-0.120;2023-05-08T09:35:51;101585.75;;;18.17;68.27
61394;BME280;48555;50.952;-0.120;2023-05-08T09:41:10;101588.13;;;18.10;67.90
61394;BME280;48555;50.952;-0.120;2023-05-08T09:43:37;101588.66;;;18.04;67.46
61394;BME280;48555;50.952;-0.120;2023-05-08T09:48:43;101578.38;;;18.01;67.67
61394;BME280;48555;50.952;-0.120;2023-05-08T09:51:10;101576.13;;;17.97;67.69
61394;BME280;48555;50.952;-0.120;2023-05-08T09:53:36;101580.47;;;17.98;68.07
61394;BME280;48555;50.952;-0.120;2023-05-08T09:56:01;101581.28;;;17.98;68.35
61394;BME280;48555;50.952;-0.120;2023-05-08T09:58:43;101580.72;;;18.04;68.32
61394;BME280;48555;50.952;-0.120;2023-05-08T10:01:32;101576.81;;;18.08;68.17
61394;BME280;48555;50.952;-0.120;2023-05-08T10:03:58;101574.31;;;18.07;68.32
61394;BME280;48555;50.952;-0.120;2023-05-08T10:06:24;101583.22;;;18.06;68.11
61394;BME280;48555;50.952;-0.120;2023-05-08T10:11:34;101569.03;;;18.07;68.77
61394;BME280;48555;50.952;-0.120;2023-05-08T10:13:59;101569.03;;;18.07;69.18
61394;BME280;48555;50.952;-0.120;2023-05-08T10:16:27;101573.63;;;18.05;68.97
61394;BME280;48555;50.952;-0.120;2023-05-08T10:18:59;101560.81;;;18.00;69.10
61394;BME280;48555;50.952;-0.120;2023-05-08T10:21:27;101551.34;;;17.98;69.00
61394;BME280;48555;50.952;-0.120;2023-05-08T10:23:55;101545.34;;;17.96;69.20
61394;BME280;48555;50.952;-0.120;2023-05-08T10:26:28;101556.47;;;17.99;69.19
61394;BME280;48555;50.952;-0.120;2023-05-08T10:31:33;101546.59;;;18.11;68.85
61394;BME280;48555;50.952;-0.120;2023-05-08T10:34:00;101542.28;;;18.20;68.83
61394;BME280;48555;50.952;-0.120;2023-05-08T10:36:27;101539.22;;;18.24;68.96
61394;BME280;48555;50.952;-0.120;2023-05-08T10:38:56;101541.59;;;18.27;69.23
61394;BME280;48555;50.952;-0.120;2023-05-08T10:41:22;101528.91;;;18.31;68.89
61394;BME280;48555;50.952;-0.120;2023-05-08T10:43:48;101523.44;;;18.42;68.91
61394;BME280;48555;50.952;-0.120;2023-05-08T10:48:49;101534.69;;;18.64;68.96
61394;BME280;48555;50.952;-0.120;2023-05-08T10:54:08;101535.97;;;18.59;67.08
61394;BME280;48555;50.952;-0.120;2023-05-08T10:56:37;101537.63;;;18.60;67.00
61394;BME280;48555;50.952;-0.120;2023-05-08T10:59:02;101521.31;;;18.55;67.19
61394;BME280;48555;50.952;-0.120;2023-05-08T11:01:28;101536.75;;;18.70;67.72
61394;BME280;48555;50.952;-0.120;2023-05-08T11:03:53;101524.22;;;18.72;67.45
61394;BME280;48555;50.952;-0.120;2023-05-08T11:06:44;101520.59;;;18.82;67.23
61394;BME280;48555;50.952;-0.120;2023-05-08T11:09:18;101523.63;;;18.88;66.87
61394;BME280;48555;50.952;-0.120;2023-05-08T11:11:51;101529.38;;;18.83;66.11
61394;BME280;48555;50.952;-0.120;2023-05-08T11:14:21;101532.03;;;18.83;66.09
61394;BME280;48555;50.952;-0.120;2023-05-08T11:19:20;101529.38;;;18.64;65.91
61394;BME280;48555;50.952;-0.120;2023-05-08T11:22:14;101537.66;;;18.51;66.21
61394;BME280;48555;50.952;-0.120;2023-05-08T11:24:55;101539.63;;;18.39;66.39
61394;BME280;48555;50.952;-0.120;2023-05-08T11:28:15;101551.06;;;18.30;66.33
61394;BME280;48555;50.952;-0.120;2023-05-08T11:38:33;101543.69;;;18.04;67.13
61394;BME280;48555;50.952;-0.120;2023-05-08T11:41:22;101540.59;;;17.99;67.99
61394;BME280;48555;50.952;-0.120;2023-05-08T11:46:48;101546.88;;;18.08;69.06
61394;BME280;48555;50.952;-0.120;2023-05-08T11:49:18;101547.31;;;18.13;69.02
61394;BME280;48555;50.952;-0.120;2023-05-08T11:51:45;101543.97;;;18.21;68.75
61394;BME280;48555;50.952;-0.120;2023-05-08T11:54:15;101548.53;;;18.28;68.42
61394;BME280;48555;50.952;-0.120;2023-05-08T11:56:41;101554.25;;;18.33;67.64
61394;BME280;48555;50.952;-0.120;2023-05-08T11:59:07;101547.56;;;18.39;66.81
61394;BME280;48555;50.952;-0.120;2023-05-08T12:01:34;101548.25;;;18.41;66.24
61394;BME280;48555;50.952;-0.120;2023-05-08T12:04:04;101547.69;;;18.37;65.48
61394;BME280;48555;50.952;-0.120;2023-05-08T12:06:30;101551.19;;;18.38;65.83
61394;BME280;48555;50.952;-0.120;2023-05-08T12:08:57;101547.53;;;18.49;66.00
61394;BME280;48555;50.952;-0.120;2023-05-08T12:11:23;101548.50;;;18.57;65.90
61394;BME280;48555;50.952;-0.120;2023-05-08T12:13:52;101542.75;;;18.72;65.84
61394;BME280;48555;50.952;-0.120;2023-05-08T12:16:19;101536.03;;;18.87;65.40
61394;BME280;48555;50.952;-0.120;2023-05-08T12:18:48;101543.81;;;18.98;64.72
61394;BME280;48555;50.952;-0.120;2023-05-08T12:21:13;101539.31;;;19.09;64.54
61394;BME280;48555;50.952;-0.120;2023-05-08T12:23:39;101536.75;;;19.17;63.92
61394;BME280;48555;50.952;-0.120;2023-05-08T12:26:04;101546.25;;;19.19;63.35
61394;BME280;48555;50.952;-0.120;2023-05-08T12:28:30;101545.84;;;19.14;62.77
61394;BME280;48555;50.952;-0.120;2023-05-08T12:30:56;101546.88;;;19.03;62.53
61394;BME280;48555;50.952;-0.120;2023-05-08T12:33:22;101551.25;;;18.95;62.95
61394;BME280;48555;50.952;-0.120;2023-05-08T12:35:48;101552.78;;;18.88;63.06
61394;BME280;48555;50.952;-0.120;2023-05-08T12:38:14;101546.41;;;18.80;63.39
61394;BME280;48555;50.952;-0.120;2023-05-08T12:40:41;101544.59;;;18.71;63.73
61394;BME280;48555;50.952;-0.120;2023-05-08T12:43:07;101538.44;;;18.71;63.63
61394;BME280;48555;50.952;-0.120;2023-05-08T12:45:36;101538.63;;;18.59;63.38
61394;BME280;48555;50.952;-0.120;2023-05-08T12:48:04;101528.19;;;18.48;63.70
61394;BME280;48555;50.952;-0.120;2023-05-08T12:50:38;101521.22;;;18.47;64.35
61394;BME280;48555;50.952;-0.120;2023-05-08T12:53:09;101520.38;;;18.56;64.27
61394;BME280;48555;50.952;-0.120;2023-05-08T12:55:37;101517.50;;;18.68;64.52
61394;BME280;48555;50.952;-0.120;2023-05-08T12:58:11;101509.59;;;18.77;64.26
61394;BME280;48555;50.952;-0.120;2023-05-08T13:00:45;101512.19;;;18.87;64.91
61394;BME280;48555;50.952;-0.120;2023-05-08T13:03:12;101497.94;;;18.98;64.50
61394;BME280;48555;50.952;-0.120;2023-05-08T13:05:43;101510.84;;;19.11;64.68
61394;BME280;48555;50.952;-0.120;2023-05-08T13:08:09;101516.38;;;19.17;64.04
61394;BME280;48555;50.952;-0.120;2023-05-08T13:10:55;101504.25;;;19.15;64.01
61394;BME280;48555;50.952;-0.120;2023-05-08T13:13:22;101509.56;;;19.15;64.18
61394;BME280;48555;50.952;-0.120;2023-05-08T13:15:49;101508.47;;;19.08;64.32
61394;BME280;48555;50.952;-0.120;2023-05-08T13:18:16;101508.09;;;19.02;64.22
61394;BME280;48555;50.952;-0.120;2023-05-08T13:20:44;101516.63;;;18.96;64.77
61394;BME280;48555;50.952;-0.120;2023-05-08T13:23:10;101502.94;;;19.01;64.80
61394;BME280;48555;50.952;-0.120;2023-05-08T13:25:37;101494.81;;;19.12;64.74
61394;BME280;48555;50.952;-0.120;2023-05-08T13:28:03;101486.94;;;19.20;64.21
61394;BME280;48555;50.952;-0.120;2023-05-08T13:30:29;101479.59;;;19.32;64.50
61394;BME280;48555;50.952;-0.120;2023-05-08T13:32:54;101480.78;;;19.47;65.00